sensor_id;sensor_type;location;lat;lon;timestamp;P1;durP1;ratioP1;P2;durP2;ratioP2
25824;SDS011;13658;44.534;18.694;2023-04-24T00:00:23;25.23;;;14.73;;
25824;SDS011;13658;44.534;18.694;2023-04-24T00:02:49;25.55;;;15.98;;
25824;SDS011;13658;44.534;18.694;2023-04-24T00:05:16;24.10;;;15.13;;
25824;SDS011;13658;44.534;18.694;2023-04-24T00:07:43;25.13;;;15.18;;
25824;SDS011;13658;44.534;18.694;2023-04-24T00:10:10;21.20;;;15.10;;
25824;SDS011;13658;44.534;18.694;2023-04-24T00:12:36;19.92;;;14.27;;
25824;SDS011;13658;44.534;18.694;2023-04-24T00:15:03;30.10;;;16.15;;
25824;SDS011;13658;44.534;18.694;2023-04-24T00:17:30;26.65;;;16.75;;
25824;SDS011;13658;44.534;18.694;2023-04-24T00:19:56;30.08;;;17.98;;
25824;SDS011;13658;44.534;18.694;2023-04-24T00:22:26;27.20;;;17.83;;
25824;SDS011;13658;44.534;18.694;2023-04-24T00:24:53;32.55;;;18.65;;
25824;SDS011;13658;44.534;18.694;2023-04-24T00:27:19;30.23;;;19.30;;
25824;SDS011;13658;44.534;18.694;2023-04-24T00:29:45;31.67;;;18.98;;
25824;SDS011;13658;44.534;18.694;2023-04-24T00:32:11;32.10;;;19.75;;
25824;SDS011;13658;44.534;18.694;2023-04-24T00:34:37;30.55;;;18.33;;
25824;SDS011;13658;44.534;18.694;2023-04-24T00:37:03;31.90;;;18.88;;
25824;SDS011;13658;44.534;18.694;2023-04-24T00:39:30;26.17;;;17.50;;
25824;SDS011;13658;44.534;18.694;2023-04-24T00:41:56;28.35;;;17.13;;
25824;SDS011;13658;44.534;18.694;2023-04-24T00:44:22;22.88;;;14.98;;
25824;SDS011;13658;44.534;18.694;2023-04-24T00:46:49;20.48;;;13.77;;
25824;SDS011;13658;44.534;18.694;2023-04-24T00:49:20;20.70;;;13.25;;
25824;SDS011;13658;44.534;18.694;2023-04-24T00:51:47;20.83;;;13.02;;
25824;SDS011;13658;44.534;18.694;2023-04-24T00:54:15;16.45;;;11.80;;
25824;SDS011;13658;44.534;18.694;2023-04-24T00:56:41;18.67;;;12.93;;
25824;SDS011;13658;44.534;18.694;2023-04-24T00:59:09;20.75;;;12.80;;
25824;SDS011;13658;44.534;18.694;2023-04-24T01:01:35;22.98;;;14.00;;
25824;SDS011;13658;44.534;18.694;2023-04-24T01:04:02;19.35;;;13.38;;
25824;SDS011;13658;44.534;18.694;2023-04-24T01:06:29;19.83;;;13.57;;
25824;SDS011;13658;44.534;18.694;2023-04-24T01:08:57;27.13;;;15.10;;
25824;SDS011;13658;44.534;18.694;2023-04-24T01:11:24;23.85;;;14.88;;
25824;SDS011;13658;44.534;18.694;2023-04-24T01:13:50;26.70;;;15.57;;
25824;SDS011;13658;44.534;18.694;2023-04-24T01:16:17;24.48;;;16.00;;
25824;SDS011;13658;44.534;18.694;2023-04-24T01:18:46;23.55;;;15.35;;
25824;SDS011;13658;44.534;18.694;2023-04-24T01:21:13;24.55;;;15.32;;
25824;SDS011;13658;44.534;18.694;2023-04-24T01:23:43;24.50;;;16.02;;
25824;SDS011;13658;44.534;18.694;2023-04-24T01:26:12;22.95;;;15.57;;
25824;SDS011;13658;44.534;18.694;2023-04-24T01:28:39;23.77;;;15.88;;
25824;SDS011;13658;44.534;18.694;2023-04-24T01:31:05;25.52;;;16.52;;
25824;SDS011;13658;44.534;18.694;2023-04-24T01:33:32;25.23;;;15.70;;
25824;SDS011;13658;44.534;18.694;2023-04-24T01:35:58;22.88;;;15.23;;
25824;SDS011;13658;44.534;18.694;2023-04-24T01:38:24;21.58;;;14.65;;
25824;SDS011;13658;44.534;18.694;2023-04-24T01:40:51;23.08;;;14.20;;
25824;SDS011;13658;44.534;18.694;2023-04-24T01:43:18;23.83;;;15.68;;
25824;SDS011;13658;44.534;18.694;2023-04-24T01:45:44;18.05;;;13.15;;
25824;SDS011;13658;44.534;18.694;2023-04-24T01:48:11;21.70;;;12.82;;
25824;SDS011;13658;44.534;18.694;2023-04-24T01:50:38;19.25;;;12.52;;
25824;SDS011;13658;44.534;18.694;2023-04-24T01:53:04;19.60;;;14.63;;
25824;SDS011;13658;44.534;18.694;2023-04-24T01:55:30;23.02;;;14.68;;
25824;SDS011;13658;44.534;18.694;2023-04-24T01:57:57;17.98;;;13.38;;
25824;SDS011;13658;44.534;18.694;2023-04-24T02:00:26;17.13;;;12.65;;
25824;SDS011;13658;44.534;18.694;2023-04-24T02:02:52;18.08;;;12.43;;
25824;SDS011;13658;44.534;18.694;2023-04-24T02:05:18;20.73;;;13.25;;
25824;SDS011;13658;44.534;18.694;2023-04-24T02:07:44;17.50;;;12.85;;
25824;SDS011;13658;44.534;18.694;2023-04-24T02:10:10;22.50;;;14.85;;
25824;SDS011;13658;44.534;18.694;2023-04-24T02:12:41;21.98;;;13.85;;
25824;SDS011;13658;44.534;18.694;2023-04-24T02:15:07;22.75;;;14.43;;
25824;SDS011;13658;44.534;18.694;2023-04-24T02:17:36;22.63;;;15.93;;
25824;SDS011;13658;44.534;18.694;2023-04-24T02:20:03;27.88;;;16.55;;
25824;SDS011;13658;44.534;18.694;2023-04-24T02:22:32;25.30;;;16.08;;
25824;SDS011;13658;44.534;18.694;2023-04-24T02:25:06;25.45;;;15.45;;
25824;SDS011;13658;44.534;18.694;2023-04-24T02:27:33;21.00;;;13.88;;
25824;SDS011;13658;44.534;18.694;2023-04-24T02:29:59;19.75;;;12.20;;
25824;SDS011;13658;44.534;18.694;2023-04-24T02:32:26;19.98;;;12.57;;
25824;SDS011;13658;44.534;18.694;2023-04-24T02:34:52;23.67;;;13.18;;
25824;SDS011;13658;44.534;18.694;2023-04-24T02:37:17;20.75;;;13.15;;
25824;SDS011;13658;44.534;18.694;2023-04-24T02:39:43;18.65;;;12.15;;
25824;SDS011;13658;44.534;18.694;2023-04-24T02:42:09;19.15;;;12.43;;
25824;SDS011;13658;44.534;18.694;2023-04-24T02:44:35;19.23;;;12.80;;
25824;SDS011;13658;44.534;18.694;2023-04-24T02:47:01;22.13;;;14.13;;
25824;SDS011;13658;44.534;18.694;2023-04-24T02:49:27;23.92;;;14.30;;
25824;SDS011;13658;44.534;18.694;2023-04-24T02:51:53;23.52;;;15.13;;
25824;SDS011;13658;44.534;18.694;2023-04-24T02:54:19;20.08;;;13.30;;
25824;SDS011;13658;44.534;18.694;2023-04-24T02:56:45;19.17;;;13.18;;
25824;SDS011;13658;44.534;18.694;2023-04-24T02:59:11;21.67;;;13.30;;
25824;SDS011;13658;44.534;18.694;2023-04-24T03:01:37;20.75;;;13.20;;
25824;SDS011;13658;44.534;18.694;2023-04-24T03:04:03;21.17;;;14.77;;
25824;SDS011;13658;44.534;18.694;2023-04-24T03:06:29;21.08;;;14.02;;
25824;SDS011;13658;44.534;18.694;2023-04-24T03:08:58;19.98;;;13.95;;
25824;SDS011;13658;44.534;18.694;2023-04-24T03:11:26;18.45;;;13.43;;
25824;SDS011;13658;44.534;18.694;2023-04-24T03:13:52;23.25;;;13.40;;
25824;SDS011;13658;44.534;18.694;2023-04-24T03:16:18;17.00;;;11.48;;
25824;SDS011;13658;44.534;18.694;2023-04-24T03:18:45;20.42;;;12.15;;
25824;SDS011;13658;44.534;18.694;2023-04-24T03:21:11;18.58;;;12.18;;
25824;SDS011;13658;44.534;18.694;2023-04-24T03:23:38;19.95;;;13.13;;
25824;SDS011;13658;44.534;18.694;2023-04-24T03:26:04;16.92;;;11.80;;
25824;SDS011;13658;44.534;18.694;2023-04-24T03:28:31;18.30;;;12.27;;
25824;SDS011;13658;44.534;18.694;2023-04-24T03:31:02;20.00;;;12.60;;
25824;SDS011;13658;44.534;18.694;2023-04-24T03:33:32;17.77;;;12.10;;
25824;SDS011;13658;44.534;18.694;2023-04-24T03:36:00;18.13;;;12.70;;
25824;SDS011;13658;44.534;18.694;2023-04-24T03:38:32;20.45;;;13.02;;
25824;SDS011;13658;44.534;18.694;2023-04-24T03:41:04;20.05;;;12.45;;
25824;SDS011;13658;44.534;18.694;2023-04-24T03:43:44;22.20;;;12.73;;
25824;SDS011;13658;44.534;18.694;2023-04-24T03:46:11;22.30;;;13.90;;
25824;SDS011;13658;44.534;18.694;2023-04-24T03:48:41;19.55;;;13.30;;
25824;SDS011;13658;44.534;18.694;2023-04-24T03:51:09;22.00;;;14.02;;
25824;SDS011;13658;44.534;18.694;2023-04-24T03:53:37;23.10;;;14.98;;
25824;SDS011;13658;44.534;18.694;2023-04-24T03:56:04;28.85;;;15.60;;
25824;SDS011;13658;44.534;18.694;2023-04-24T03:58:31;21.48;;;14.82;;
25824;SDS011;13658;44.534;18.694;2023-04-24T04:00:59;18.02;;;12.02;;
25824;SDS011;13658;44.534;18.694;2023-04-24T04:03:54;23.27;;;14.68;;
25824;SDS011;13658;44.534;18.694;2023-04-24T04:06:23;20.80;;;13.50;;
25824;SDS011;13658;44.534;18.694;2023-04-24T04:08:51;19.48;;;13.77;;
25824;SDS011;13658;44.534;18.694;2023-04-24T04:11:17;18.67;;;12.93;;
25824;SDS011;13658;44.534;18.694;2023-04-24T04:13:44;18.90;;;12.80;;
25824;SDS011;13658;44.534;18.694;2023-04-24T04:16:11;26.80;;;15.38;;
25824;SDS011;13658;44.534;18.694;2023-04-24T04:18:37;23.30;;;14.50;;
25824;SDS011;13658;44.534;18.694;2023-04-24T04:21:05;23.35;;;15.00;;
25824;SDS011;13658;44.534;18.694;2023-04-24T04:23:31;23.17;;;15.45;;
25824;SDS011;13658;44.534;18.694;2023-04-24T04:26:06;22.38;;;14.82;;
25824;SDS011;13658;44.534;18.694;2023-04-24T04:28:52;25.33;;;16.27;;
25824;SDS011;13658;44.534;18.694;2023-04-24T04:31:19;27.65;;;16.45;;
25824;SDS011;13658;44.534;18.694;2023-04-24T04:33:47;33.20;;;18.48;;
25824;SDS011;13658;44.534;18.694;2023-04-24T04:36:13;31.00;;;19.25;;
25824;SDS011;13658;44.534;18.694;2023-04-24T04:38:44;27.30;;;17.25;;
25824;SDS011;13658;44.534;18.694;2023-04-24T04:41:22;26.35;;;16.35;;
25824;SDS011;13658;44.534;18.694;2023-04-24T04:43:48;29.38;;;17.45;;
25824;SDS011;13658;44.534;18.694;2023-04-24T04:46:16;35.13;;;18.92;;
25824;SDS011;13658;44.534;18.694;2023-04-24T04:49:07;29.48;;;16.00;;
25824;SDS011;13658;44.534;18.694;2023-04-24T04:51:34;32.55;;;17.38;;
25824;SDS011;13658;44.534;18.694;2023-04-24T04:54:01;27.10;;;16.30;;
25824;SDS011;13658;44.534;18.694;2023-04-24T04:56:27;29.33;;;17.85;;
25824;SDS011;13658;44.534;18.694;2023-04-24T04:58:55;25.58;;;14.82;;
25824;SDS011;13658;44.534;18.694;2023-04-24T05:01:21;25.65;;;17.33;;
25824;SDS011;13658;44.534;18.694;2023-04-24T05:03:49;29.45;;;17.05;;
25824;SDS011;13658;44.534;18.694;2023-04-24T05:06:16;26.63;;;16.50;;
25824;SDS011;13658;44.534;18.694;2023-04-24T05:08:44;29.48;;;16.90;;
25824;SDS011;13658;44.534;18.694;2023-04-24T05:11:20;26.88;;;17.88;;
25824;SDS011;13658;44.534;18.694;2023-04-24T05:13:46;27.60;;;16.25;;
25824;SDS011;13658;44.534;18.694;2023-04-24T05:16:18;30.60;;;17.98;;
25824;SDS011;13658;44.534;18.694;2023-04-24T05:18:44;32.10;;;17.35;;
25824;SDS011;13658;44.534;18.694;2023-04-24T05:21:13;33.55;;;17.27;;
25824;SDS011;13658;44.534;18.694;2023-04-24T05:23:44;30.23;;;17.70;;
25824;SDS011;13658;44.534;18.694;2023-04-24T05:26:15;33.22;;;18.67;;
25824;SDS011;13658;44.534;18.694;2023-04-24T05:28:41;30.48;;;18.10;;
25824;SDS011;13658;44.534;18.694;2023-04-24T05:31:11;30.15;;;18.15;;
25824;SDS011;13658;44.534;18.694;2023-04-24T05:33:37;32.42;;;18.95;;
25824;SDS011;13658;44.534;18.694;2023-04-24T05:36:03;28.88;;;17.60;;
25824;SDS011;13658;44.534;18.694;2023-04-24T05:38:31;29.95;;;19.20;;
25824;SDS011;13658;44.534;18.694;2023-04-24T05:40:57;28.50;;;17.45;;
25824;SDS011;13658;44.534;18.694;2023-04-24T05:43:23;38.42;;;20.58;;
25824;SDS011;13658;44.534;18.694;2023-04-24T05:45:49;35.33;;;20.40;;
25824;SDS011;13658;44.534;18.694;2023-04-24T05:48:17;42.60;;;26.50;;
25824;SDS011;13658;44.534;18.694;2023-04-24T05:50:42;29.48;;;18.55;;
25824;SDS011;13658;44.534;18.694;2023-04-24T05:53:10;51.92;;;26.73;;
25824;SDS011;13658;44.534;18.694;2023-04-24T05:55:36;33.28;;;18.10;;
25824;SDS011;13658;44.534;18.694;2023-04-24T05:58:03;31.00;;;18.55;;
25824;SDS011;13658;44.534;18.694;2023-04-24T06:00:29;28.65;;;17.75;;
25824;SDS011;13658;44.534;18.694;2023-04-24T06:03:04;28.17;;;17.60;;
25824;SDS011;13658;44.534;18.694;2023-04-24T06:05:29;26.58;;;17.80;;
25824;SDS011;13658;44.534;18.694;2023-04-24T06:07:56;23.45;;;16.25;;
25824;SDS011;13658;44.534;18.694;2023-04-24T06:10:25;29.05;;;16.30;;
25824;SDS011;13658;44.534;18.694;2023-04-24T06:12:51;24.33;;;14.98;;
25824;SDS011;13658;44.534;18.694;2023-04-24T06:15:18;20.65;;;13.82;;
25824;SDS011;13658;44.534;18.694;2023-04-24T06:17:55;24.70;;;15.32;;
25824;SDS011;13658;44.534;18.694;2023-04-24T06:20:21;20.50;;;13.52;;
25824;SDS011;13658;44.534;18.694;2023-04-24T06:22:47;30.88;;;18.92;;
25824;SDS011;13658;44.534;18.694;2023-04-24T06:25:13;35.65;;;21.90;;
25824;SDS011;13658;44.534;18.694;2023-04-24T06:27:40;35.83;;;21.55;;
25824;SDS011;13658;44.534;18.694;2023-04-24T06:30:07;36.80;;;22.58;;
25824;SDS011;13658;44.534;18.694;2023-04-24T06:32:33;32.22;;;20.13;;
25824;SDS011;13658;44.534;18.694;2023-04-24T06:34:59;140.57;;;65.50;;
25824;SDS011;13658;44.534;18.694;2023-04-24T06:37:26;127.20;;;59.17;;
25824;SDS011;13658;44.534;18.694;2023-04-24T06:39:52;90.85;;;48.65;;
25824;SDS011;13658;44.534;18.694;2023-04-24T06:42:18;60.53;;;33.03;;
25824;SDS011;13658;44.534;18.694;2023-04-24T06:44:48;58.10;;;34.13;;
25824;SDS011;13658;44.534;18.694;2023-04-24T06:47:14;52.10;;;31.27;;
25824;SDS011;13658;44.534;18.694;2023-04-24T06:49:42;42.65;;;25.83;;
25824;SDS011;13658;44.534;18.694;2023-04-24T06:52:08;41.60;;;24.73;;
25824;SDS011;13658;44.534;18.694;2023-04-24T06:54:34;33.58;;;23.85;;
25824;SDS011;13658;44.534;18.694;2023-04-24T06:57:00;37.85;;;24.42;;
25824;SDS011;13658;44.534;18.694;2023-04-24T06:59:28;34.60;;;23.00;;
25824;SDS011;13658;44.534;18.694;2023-04-24T07:01:55;32.65;;;22.02;;
25824;SDS011;13658;44.534;18.694;2023-04-24T07:04:21;38.80;;;24.65;;
25824;SDS011;13658;44.534;18.694;2023-04-24T07:06:48;66.82;;;39.17;;
25824;SDS011;13658;44.534;18.694;2023-04-24T07:09:19;65.60;;;38.65;;
25824;SDS011;13658;44.534;18.694;2023-04-24T07:11:45;45.88;;;29.83;;
25824;SDS011;13658;44.534;18.694;2023-04-24T07:14:11;46.00;;;31.08;;
25824;SDS011;13658;44.534;18.694;2023-04-24T07:16:37;37.83;;;26.05;;
25824;SDS011;13658;44.534;18.694;2023-04-24T07:19:04;70.00;;;42.72;;
25824;SDS011;13658;44.534;18.694;2023-04-24T07:21:31;39.90;;;26.63;;
25824;SDS011;13658;44.534;18.694;2023-04-24T07:23:57;41.55;;;27.52;;
25824;SDS011;13658;44.534;18.694;2023-04-24T07:26:24;41.90;;;28.55;;
25824;SDS011;13658;44.534;18.694;2023-04-24T07:28:52;47.83;;;30.65;;
25824;SDS011;13658;44.534;18.694;2023-04-24T07:31:18;43.42;;;27.75;;
25824;SDS011;13658;44.534;18.694;2023-04-24T07:33:44;31.77;;;22.65;;
25824;SDS011;13658;44.534;18.694;2023-04-24T07:36:10;37.63;;;25.27;;
25824;SDS011;13658;44.534;18.694;2023-04-24T07:38:43;37.15;;;24.85;;
25824;SDS011;13658;44.534;18.694;2023-04-24T07:41:12;72.32;;;43.72;;
25824;SDS011;13658;44.534;18.694;2023-04-24T07:43:39;46.53;;;30.73;;
25824;SDS011;13658;44.534;18.694;2023-04-24T07:46:05;86.10;;;51.25;;
25824;SDS011;13658;44.534;18.694;2023-04-24T07:48:32;45.05;;;28.90;;
25824;SDS011;13658;44.534;18.694;2023-04-24T07:50:58;35.65;;;24.10;;
25824;SDS011;13658;44.534;18.694;2023-04-24T07:53:24;86.50;;;50.55;;
25824;SDS011;13658;44.534;18.694;2023-04-24T07:55:50;33.17;;;19.70;;
25824;SDS011;13658;44.534;18.694;2023-04-24T07:58:16;28.90;;;20.55;;
25824;SDS011;13658;44.534;18.694;2023-04-24T08:00:42;28.52;;;18.77;;
25824;SDS011;13658;44.534;18.694;2023-04-24T08:03:08;27.65;;;17.38;;
25824;SDS011;13658;44.534;18.694;2023-04-24T08:05:34;23.38;;;17.20;;
25824;SDS011;13658;44.534;18.694;2023-04-24T08:08:00;41.28;;;27.73;;
25824;SDS011;13658;44.534;18.694;2023-04-24T08:10:26;30.95;;;20.60;;
25824;SDS011;13658;44.534;18.694;2023-04-24T08:12:52;25.38;;;18.80;;
25824;SDS011;13658;44.534;18.694;2023-04-24T08:15:18;29.45;;;20.48;;
25824;SDS011;13658;44.534;18.694;2023-04-24T08:17:44;38.50;;;23.98;;
25824;SDS011;13658;44.534;18.694;2023-04-24T08:20:10;32.95;;;21.27;;
25824;SDS011;13658;44.534;18.694;2023-04-24T08:22:40;24.50;;;17.52;;
25824;SDS011;13658;44.534;18.694;2023-04-24T08:25:07;43.28;;;28.92;;
25824;SDS011;13658;44.534;18.694;2023-04-24T08:27:35;40.75;;;26.25;;
25824;SDS011;13658;44.534;18.694;2023-04-24T08:30:02;51.92;;;34.55;;
25824;SDS011;13658;44.534;18.694;2023-04-24T08:32:29;38.75;;;25.85;;
25824;SDS011;13658;44.534;18.694;2023-04-24T08:34:55;60.22;;;37.00;;
25824;SDS011;13658;44.534;18.694;2023-04-24T08:37:22;70.32;;;42.90;;
25824;SDS011;13658;44.534;18.694;2023-04-24T08:39:50;87.63;;;50.50;;
25824;SDS011;13658;44.534;18.694;2023-04-24T08:42:17;58.45;;;38.47;;
25824;SDS011;13658;44.534;18.694;2023-04-24T08:44:45;36.08;;;23.67;;
25824;SDS011;13658;44.534;18.694;2023-04-24T08:47:11;25.40;;;18.17;;
25824;SDS011;13658;44.534;18.694;2023-04-24T08:49:38;33.92;;;25.20;;
25824;SDS011;13658;44.534;18.694;2023-04-24T08:52:04;24.38;;;17.98;;
25824;SDS011;13658;44.534;18.694;2023-04-24T08:54:31;32.22;;;19.05;;
25824;SDS011;13658;44.534;18.694;2023-04-24T08:56:59;19.23;;;11.82;;
25824;SDS011;13658;44.534;18.694;2023-04-24T08:59:30;23.38;;;15.18;;
25824;SDS011;13658;44.534;18.694;2023-04-24T09:01:56;36.25;;;26.83;;
25824;SDS011;13658;44.534;18.694;2023-04-24T09:04:23;22.13;;;14.00;;
25824;SDS011;13658;44.534;18.694;2023-04-24T09:06:50;34.95;;;23.00;;
25824;SDS011;13658;44.534;18.694;2023-04-24T09:09:20;16.67;;;11.23;;
25824;SDS011;13658;44.534;18.694;2023-04-24T09:11:48;32.65;;;20.00;;
25824;SDS011;13658;44.534;18.694;2023-04-24T09:14:21;36.60;;;23.23;;
25824;SDS011;13658;44.534;18.694;2023-04-24T09:16:49;13.75;;;10.15;;
25824;SDS011;13658;44.534;18.694;2023-04-24T09:19:15;32.15;;;17.70;;
25824;SDS011;13658;44.534;18.694;2023-04-24T09:21:41;10.10;;;8.30;;
25824;SDS011;13658;44.534;18.694;2023-04-24T09:24:20;7.40;;;5.05;;
25824;SDS011;13658;44.534;18.694;2023-04-24T09:26:57;6.85;;;5.40;;
25824;SDS011;13658;44.534;18.694;2023-04-24T09:29:26;11.80;;;6.55;;
25824;SDS011;13658;44.534;18.694;2023-04-24T09:31:53;19.50;;;12.70;;
25824;SDS011;13658;44.534;18.694;2023-04-24T09:34:23;41.10;;;26.67;;
25824;SDS011;13658;44.534;18.694;2023-04-24T09:36:50;53.70;;;29.38;;
25824;SDS011;13658;44.534;18.694;2023-04-24T09:39:17;26.85;;;17.85;;
25824;SDS011;13658;44.534;18.694;2023-04-24T09:41:45;16.88;;;12.55;;
25824;SDS011;13658;44.534;18.694;2023-04-24T09:44:22;9.85;;;6.50;;
25824;SDS011;13658;44.534;18.694;2023-04-24T09:46:57;28.65;;;15.15;;
25824;SDS011;13658;44.534;18.694;2023-04-24T09:49:24;13.52;;;9.88;;
25824;SDS011;13658;44.534;18.694;2023-04-24T09:51:51;11.73;;;8.77;;
25824;SDS011;13658;44.534;18.694;2023-04-24T09:54:27;55.75;;;27.35;;
25824;SDS011;13658;44.534;18.694;2023-04-24T09:56:54;7.35;;;5.85;;
25824;SDS011;13658;44.534;18.694;2023-04-24T09:59:21;18.40;;;12.35;;
25824;SDS011;13658;44.534;18.694;2023-04-24T10:01:48;9.48;;;5.50;;
25824;SDS011;13658;44.534;18.694;2023-04-24T10:04:21;8.88;;;5.22;;
25824;SDS011;13658;44.534;18.694;2023-04-24T10:06:49;14.13;;;10.02;;
25824;SDS011;13658;44.534;18.694;2023-04-24T10:09:17;10.52;;;6.88;;
25824;SDS011;13658;44.534;18.694;2023-04-24T10:11:45;17.33;;;8.02;;
25824;SDS011;13658;44.534;18.694;2023-04-24T10:14:16;8.00;;;5.40;;
25824;SDS011;13658;44.534;18.694;2023-04-24T10:16:45;19.85;;;13.43;;
25824;SDS011;13658;44.534;18.694;2023-04-24T10:19:12;12.07;;;8.85;;
25824;SDS011;13658;44.534;18.694;2023-04-24T10:21:40;7.60;;;5.13;;
25824;SDS011;13658;44.534;18.694;2023-04-24T10:24:08;15.93;;;10.98;;
25824;SDS011;13658;44.534;18.694;2023-04-24T10:26:35;16.13;;;11.27;;
25824;SDS011;13658;44.534;18.694;2023-04-24T10:29:02;18.08;;;9.68;;
25824;SDS011;13658;44.534;18.694;2023-04-24T10:31:36;7.80;;;6.05;;
25824;SDS011;13658;44.534;18.694;2023-04-24T10:34:04;10.93;;;7.70;;
25824;SDS011;13658;44.534;18.694;2023-04-24T10:36:35;6.95;;;4.82;;
25824;SDS011;13658;44.534;18.694;2023-04-24T10:39:05;6.57;;;4.55;;
25824;SDS011;13658;44.534;18.694;2023-04-24T10:41:36;22.30;;;14.70;;
25824;SDS011;13658;44.534;18.694;2023-04-24T10:44:10;13.18;;;7.88;;
25824;SDS011;13658;44.534;18.694;2023-04-24T10:46:38;6.88;;;4.70;;
25824;SDS011;13658;44.534;18.694;2023-04-24T10:49:08;6.70;;;5.10;;
25824;SDS011;13658;44.534;18.694;2023-04-24T10:51:45;11.80;;;8.35;;
25824;SDS011;13658;44.534;18.694;2023-04-24T10:54:22;10.07;;;6.03;;
25824;SDS011;13658;44.534;18.694;2023-04-24T10:56:49;11.07;;;8.20;;
25824;SDS011;13658;44.534;18.694;2023-04-24T10:59:26;6.43;;;5.03;;
25824;SDS011;13658;44.534;18.694;2023-04-24T11:01:59;16.00;;;11.05;;
25824;SDS011;13658;44.534;18.694;2023-04-24T11:04:29;11.60;;;7.75;;
25824;SDS011;13658;44.534;18.694;2023-04-24T11:06:57;7.43;;;5.05;;
25824;SDS011;13658;44.534;18.694;2023-04-24T11:09:25;39.08;;;28.55;;
25824;SDS011;13658;44.534;18.694;2023-04-24T11:12:02;8.95;;;6.47;;
25824;SDS011;13658;44.534;18.694;2023-04-24T11:17:33;10.45;;;5.43;;
25824;SDS011;13658;44.534;18.694;2023-04-24T11:20:09;8.07;;;5.35;;
25824;SDS011;13658;44.534;18.694;2023-04-24T11:22:37;10.10;;;6.40;;
25824;SDS011;13658;44.534;18.694;2023-04-24T11:25:10;7.38;;;6.18;;
25824;SDS011;13658;44.534;18.694;2023-04-24T11:27:43;6.35;;;4.18;;
25824;SDS011;13658;44.534;18.694;2023-04-24T11:30:11;6.72;;;4.70;;
25824;SDS011;13658;44.534;18.694;2023-04-24T11:32:42;5.28;;;4.40;;
25824;SDS011;13658;44.534;18.694;2023-04-24T11:35:13;6.10;;;4.93;;
25824;SDS011;13658;44.534;18.694;2023-04-24T11:37:44;8.57;;;5.88;;
25824;SDS011;13658;44.534;18.694;2023-04-24T11:40:14;13.32;;;9.80;;
25824;SDS011;13658;44.534;18.694;2023-04-24T11:42:43;5.38;;;4.88;;
25824;SDS011;13658;44.534;18.694;2023-04-24T11:45:14;7.38;;;5.22;;
25824;SDS011;13658;44.534;18.694;2023-04-24T11:47:46;7.43;;;4.90;;
25824;SDS011;13658;44.534;18.694;2023-04-24T11:50:13;7.13;;;4.60;;
25824;SDS011;13658;44.534;18.694;2023-04-24T11:52:40;10.63;;;6.35;;
25824;SDS011;13658;44.534;18.694;2023-04-24T11:55:23;5.65;;;4.93;;
25824;SDS011;13658;44.534;18.694;2023-04-24T11:57:53;8.23;;;4.53;;
25824;SDS011;13658;44.534;18.694;2023-04-24T12:00:25;7.30;;;4.97;;
25824;SDS011;13658;44.534;18.694;2023-04-24T12:03:02;6.45;;;4.38;;
25824;SDS011;13658;44.534;18.694;2023-04-24T12:05:32;4.50;;;3.78;;
25824;SDS011;13658;44.534;18.694;2023-04-24T12:07:59;5.40;;;3.80;;
25824;SDS011;13658;44.534;18.694;2023-04-24T12:10:26;6.38;;;4.45;;
25824;SDS011;13658;44.534;18.694;2023-04-24T12:12:55;6.35;;;4.57;;
25824;SDS011;13658;44.534;18.694;2023-04-24T12:15:22;5.50;;;4.53;;
25824;SDS011;13658;44.534;18.694;2023-04-24T12:17:50;7.65;;;5.50;;
25824;SDS011;13658;44.534;18.694;2023-04-24T12:20:23;7.53;;;4.20;;
25824;SDS011;13658;44.534;18.694;2023-04-24T12:22:51;7.43;;;4.45;;
25824;SDS011;13658;44.534;18.694;2023-04-24T12:25:28;7.40;;;5.22;;
25824;SDS011;13658;44.534;18.694;2023-04-24T12:30:28;7.07;;;4.70;;
25824;SDS011;13658;44.534;18.694;2023-04-24T12:32:57;10.43;;;9.43;;
25824;SDS011;13658;44.534;18.694;2023-04-24T12:35:24;9.98;;;7.18;;
25824;SDS011;13658;44.534;18.694;2023-04-24T12:37:53;6.85;;;4.68;;
25824;SDS011;13658;44.534;18.694;2023-04-24T12:40:20;5.07;;;3.50;;
25824;SDS011;13658;44.534;18.694;2023-04-24T12:42:50;6.93;;;4.63;;
25824;SDS011;13658;44.534;18.694;2023-04-24T12:45:17;6.97;;;4.13;;
25824;SDS011;13658;44.534;18.694;2023-04-24T12:47:44;7.22;;;4.45;;
25824;SDS011;13658;44.534;18.694;2023-04-24T12:50:12;6.57;;;3.80;;
25824;SDS011;13658;44.534;18.694;2023-04-24T12:52:41;9.55;;;4.70;;
25824;SDS011;13658;44.534;18.694;2023-04-24T12:55:11;6.40;;;4.00;;
25824;SDS011;13658;44.534;18.694;2023-04-24T12:57:38;9.43;;;5.45;;
25824;SDS011;13658;44.534;18.694;2023-04-24T13:00:08;8.05;;;4.25;;
25824;SDS011;13658;44.534;18.694;2023-04-24T13:02:35;8.55;;;4.10;;
25824;SDS011;13658;44.534;18.694;2023-04-24T13:05:08;5.22;;;4.05;;
25824;SDS011;13658;44.534;18.694;2023-04-24T13:07:36;5.78;;;4.22;;
25824;SDS011;13658;44.534;18.694;2023-04-24T13:10:05;8.43;;;4.53;;
25824;SDS011;13658;44.534;18.694;2023-04-24T13:12:32;7.53;;;4.45;;
25824;SDS011;13658;44.534;18.694;2023-04-24T13:14:58;7.05;;;4.07;;
25824;SDS011;13658;44.534;18.694;2023-04-24T13:17:24;9.18;;;4.55;;
25824;SDS011;13658;44.534;18.694;2023-04-24T13:19:50;9.30;;;3.80;;
25824;SDS011;13658;44.534;18.694;2023-04-24T13:22:17;10.55;;;4.68;;
25824;SDS011;13658;44.534;18.694;2023-04-24T13:24:46;6.40;;;4.20;;
25824;SDS011;13658;44.534;18.694;2023-04-24T13:27:14;7.30;;;3.90;;
25824;SDS011;13658;44.534;18.694;2023-04-24T13:29:40;7.15;;;5.88;;
25824;SDS011;13658;44.534;18.694;2023-04-24T13:32:07;7.20;;;4.13;;
25824;SDS011;13658;44.534;18.694;2023-04-24T13:34:33;5.75;;;4.10;;
25824;SDS011;13658;44.534;18.694;2023-04-24T13:37:00;6.60;;;4.40;;
25824;SDS011;13658;44.534;18.694;2023-04-24T13:39:29;8.02;;;4.30;;
25824;SDS011;13658;44.534;18.694;2023-04-24T13:41:55;8.38;;;4.03;;
25824;SDS011;13658;44.534;18.694;2023-04-24T13:44:21;6.55;;;4.80;;
25824;SDS011;13658;44.534;18.694;2023-04-24T13:46:49;5.68;;;3.55;;
25824;SDS011;13658;44.534;18.694;2023-04-24T13:49:19;5.40;;;4.65;;
25824;SDS011;13658;44.534;18.694;2023-04-24T13:51:46;4.95;;;4.10;;
25824;SDS011;13658;44.534;18.694;2023-04-24T13:54:12;4.68;;;3.70;;
25824;SDS011;13658;44.534;18.694;2023-04-24T13:56:39;6.10;;;4.60;;
25824;SDS011;13658;44.534;18.694;2023-04-24T13:59:05;5.32;;;4.10;;
25824;SDS011;13658;44.534;18.694;2023-04-24T14:01:32;5.50;;;4.30;;
25824;SDS011;13658;44.534;18.694;2023-04-24T14:03:58;6.72;;;4.50;;
25824;SDS011;13658;44.534;18.694;2023-04-24T14:06:24;6.15;;;4.15;;
25824;SDS011;13658;44.534;18.694;2023-04-24T14:08:51;5.45;;;4.10;;
25824;SDS011;13658;44.534;18.694;2023-04-24T14:11:18;5.50;;;3.78;;
25824;SDS011;13658;44.534;18.694;2023-04-24T14:13:45;10.88;;;6.88;;
25824;SDS011;13658;44.534;18.694;2023-04-24T14:16:11;5.35;;;4.15;;
25824;SDS011;13658;44.534;18.694;2023-04-24T14:18:37;8.70;;;4.10;;
25824;SDS011;13658;44.534;18.694;2023-04-24T14:21:03;5.57;;;3.58;;
25824;SDS011;13658;44.534;18.694;2023-04-24T14:23:30;7.93;;;5.10;;
25824;SDS011;13658;44.534;18.694;2023-04-24T14:25:57;5.03;;;3.80;;